createdAt,value
2022-10-19T00:01:20.076Z,12.59
2022-10-19T00:03:53.209Z,12.59
2022-10-19T00:06:31.253Z,12.54
2022-10-19T00:09:07.101Z,12.55
2022-10-19T00:11:37.431Z,12.59
2022-10-19T00:14:06.487Z,12.51
2022-10-19T00:16:37.767Z,12.57
2022-10-19T00:19:12.226Z,12.51
2022-10-19T00:21:40.026Z,12.61
2022-10-19T00:24:10.752Z,12.39
2022-10-19T00:26:38.126Z,12.49
2022-10-19T00:29:06.913Z,12.60
2022-10-19T00:31:34.984Z,12.67
2022-10-19T00:34:04.711Z,12.59
2022-10-19T00:36:35.735Z,12.72
2022-10-19T00:39:08.434Z,12.84
2022-10-19T00:41:36.817Z,12.56
2022-10-19T00:44:15.963Z,12.77
2022-10-19T00:46:49.467Z,12.79
2022-10-19T00:49:25.216Z,12.79
2022-10-19T00:52:02.974Z,12.70
2022-10-19T00:54:36.354Z,12.66
2022-10-19T00:57:07.610Z,12.69
2022-10-19T00:59:36.582Z,12.73
2022-10-19T01:02:08.098Z,12.71
2022-10-19T01:04:40.512Z,12.42
2022-10-19T01:07:09.274Z,12.66
2022-10-19T01:09:36.433Z,12.59
2022-10-19T01:12:35.382Z,12.48
2022-10-19T01:15:27.035Z,12.47
2022-10-19T01:18:24.251Z,12.46
2022-10-19T01:21:15.190Z,12.43
2022-10-19T01:24:42.514Z,12.56
2022-10-19T01:27:27.601Z,12.58
2022-10-19T01:29:57.231Z,12.62
2022-10-19T01:32:37.565Z,12.48
2022-10-19T01:35:17.378Z,12.38
2022-10-19T01:38:11.358Z,12.55
2022-10-19T01:40:52.083Z,12.58
2022-10-19T01:43:25.987Z,12.62
2022-10-19T01:46:14.111Z,12.82
2022-10-19T01:48:51.533Z,12.52
2022-10-19T01:51:25.727Z,12.61
2022-10-19T01:53:57.443Z,12.56
2022-10-19T01:56:28.067Z,12.31
2022-10-19T01:58:58.796Z,12.49
2022-10-19T02:01:31.477Z,12.42
2022-10-19T02:03:59.553Z,12.38
2022-10-19T02:06:27.065Z,12.35
2022-10-19T02:08:54.873Z,12.21
2022-10-19T02:11:23.146Z,12.48
2022-10-19T02:14:01.680Z,12.49
2022-10-19T02:16:42.497Z,12.44
2022-10-19T02:19:13.388Z,12.33
2022-10-19T02:21:41.021Z,12.45
2022-10-19T02:24:08.185Z,12.32
2022-10-19T02:26:39.079Z,12.29
2022-10-19T02:29:06.721Z,12.28
2022-10-19T02:31:34.227Z,12.43
2022-10-19T02:34:01.952Z,12.22
2022-10-19T02:36:29.327Z,12.24
2022-10-19T02:38:56.562Z,12.35
2022-10-19T02:42:05.955Z,12.40
2022-10-19T02:45:05.597Z,12.17
2022-10-19T02:47:38.749Z,12.21
2022-10-19T02:50:08.617Z,12.27
2022-10-19T02:52:40.711Z,12.26
2022-10-19T02:55:08.956Z,12.09
2022-10-19T02:57:36.946Z,11.96
2022-10-19T03:00:08.325Z,12.10
2022-10-19T03:02:35.935Z,12.13
2022-10-19T03:05:07.084Z,12.09
2022-10-19T03:07:34.780Z,12.08
2022-10-19T03:10:02.253Z,12.24
2022-10-19T03:12:31.584Z,12.08
2022-10-19T03:14:58.704Z,12.03
2022-10-19T03:17:25.805Z,12.32
2022-10-19T03:19:52.991Z,12.22
2022-10-19T03:22:20.038Z,12.07
2022-10-19T03:24:47.241Z,12.18
2022-10-19T03:27:14.489Z,12.10
2022-10-19T03:29:41.546Z,12.25
2022-10-19T03:32:11.263Z,12.19
2022-10-19T03:34:38.296Z,12.24
2022-10-19T03:37:05.452Z,12.18
2022-10-19T03:39:32.585Z,12.32
2022-10-19T03:41:59.766Z,12.44
2022-10-19T03:44:26.873Z,12.25
2022-10-19T03:46:54.029Z,12.14
2022-10-19T03:49:21.346Z,12.26
2022-10-19T03:51:48.690Z,12.17
2022-10-19T03:54:17.637Z,12.14
2022-10-19T03:56:44.996Z,12.17
2022-10-19T03:59:14.834Z,12.10
2022-10-19T04:01:46.438Z,12.13
2022-10-19T04:04:17.197Z,12.11
2022-10-19T04:06:50.097Z,12.18
2022-10-19T04:09:20.229Z,11.96
2022-10-19T04:11:48.392Z,12.10
2022-10-19T04:14:31.747Z,11.92
2022-10-19T04:17:04.536Z,11.90
2022-10-19T04:19:32.784Z,11.92
2022-10-19T04:22:01.802Z,11.93
2022-10-19T04:24:29.323Z,11.80
2022-10-19T04:26:58.892Z,11.78
2022-10-19T04:29:29.836Z,11.82
2022-10-19T04:31:58.509Z,11.97
2022-10-19T04:34:25.638Z,12.07
2022-10-19T04:36:55.269Z,12.18
2022-10-19T04:39:22.306Z,11.91
2022-10-19T04:41:49.395Z,12.05
2022-10-19T04:44:16.587Z,12.05
2022-10-19T04:46:43.712Z,11.89
2022-10-19T04:49:10.782Z,12.00
2022-10-19T04:51:37.806Z,12.06
2022-10-19T04:54:05.309Z,11.89
2022-10-19T04:56:32.750Z,11.98
2022-10-19T04:59:00.949Z,11.92
2022-10-19T05:01:30.682Z,11.79
2022-10-19T05:03:58.089Z,11.92
2022-10-19T05:06:26.156Z,11.80
2022-10-19T05:08:53.532Z,11.71
2022-10-19T05:11:21.628Z,11.74
2022-10-19T05:13:49.615Z,11.93
2022-10-19T05:16:22.786Z,11.78
2022-10-19T05:18:52.043Z,11.79
2022-10-19T05:21:21.887Z,11.93
2022-10-19T05:23:55.266Z,11.91
2022-10-19T05:26:25.816Z,11.97
2022-10-19T05:29:04.819Z,11.98
2022-10-19T05:31:34.052Z,12.01
2022-10-19T05:34:04.165Z,12.21
2022-10-19T05:36:37.669Z,12.23
2022-10-19T05:39:14.466Z,12.09
2022-10-19T05:41:47.586Z,12.12
2022-10-19T05:44:21.461Z,12.19
2022-10-19T05:46:50.495Z,12.18
2022-10-19T05:49:20.929Z,12.19
2022-10-19T05:51:49.033Z,12.28
2022-10-19T05:54:16.975Z,12.13
2022-10-19T05:56:44.795Z,12.29
2022-10-19T05:59:17.926Z,12.15
2022-10-19T06:01:46.356Z,12.21
2022-10-19T06:06:43.704Z,12.34
2022-10-19T06:09:11.699Z,12.34
2022-10-19T06:11:41.810Z,12.43
2022-10-19T06:14:14.525Z,12.42
2022-10-19T06:16:41.827Z,12.51
2022-10-19T06:19:09.155Z,12.67
2022-10-19T06:21:36.275Z,12.82
2022-10-19T06:24:06.558Z,12.67
2022-10-19T06:26:35.550Z,13.33
2022-10-19T06:29:03.961Z,13.18
2022-10-19T06:31:34.294Z,13.05
2022-10-19T06:34:01.723Z,12.93
2022-10-19T06:36:31.327Z,13.07
2022-10-19T06:38:59.844Z,13.17
2022-10-19T06:41:27.808Z,13.27
2022-10-19T06:43:55.881Z,13.10
2022-10-19T06:46:25.162Z,13.03
2022-10-19T06:49:01.777Z,13.21
2022-10-19T06:51:32.331Z,13.27
2022-10-19T06:53:59.745Z,12.98
2022-10-19T06:56:27.420Z,12.92
2022-10-19T06:58:58.378Z,12.81
2022-10-19T07:01:26.102Z,12.89
2022-10-19T07:03:55.730Z,13.09
2022-10-19T07:06:24.017Z,13.14
2022-10-19T07:08:52.489Z,13.06
2022-10-19T07:11:22.741Z,12.93
2022-10-19T07:13:52.194Z,13.00
2022-10-19T07:16:21.245Z,12.94
2022-10-19T07:18:51.345Z,13.17
2022-10-19T07:21:20.367Z,13.06
2022-10-19T07:23:48.563Z,13.04
2022-10-19T07:26:28.884Z,13.33
2022-10-19T07:28:57.526Z,13.28
2022-10-19T07:31:26.780Z,12.94
2022-10-19T07:34:00.230Z,13.00
2022-10-19T07:36:29.609Z,13.09
2022-10-19T07:38:57.171Z,13.01
2022-10-19T07:41:26.741Z,13.16
2022-10-19T07:43:54.943Z,13.30
2022-10-19T07:46:33.500Z,13.57
2022-10-19T07:49:01.186Z,13.82
2022-10-19T07:53:58.169Z,14.03
2022-10-19T07:56:27.808Z,14.11
2022-10-19T07:58:57.556Z,14.33
2022-10-19T08:01:31.848Z,14.42
2022-10-19T08:06:47.836Z,14.47
2022-10-19T08:09:33.436Z,14.71
2022-10-19T08:12:02.992Z,14.77
2022-10-19T08:14:32.750Z,14.85
2022-10-19T08:17:01.054Z,15.03
2022-10-19T08:19:28.516Z,14.83
2022-10-19T08:21:55.667Z,14.90
2022-10-19T08:24:22.880Z,15.40
2022-10-19T08:26:51.408Z,15.55
2022-10-19T08:29:24.585Z,17.21
2022-10-19T08:31:58.171Z,18.51
2022-10-19T08:34:25.539Z,20.03
2022-10-19T08:36:52.847Z,21.29
2022-10-19T08:39:20.017Z,20.02
2022-10-19T08:42:03.900Z,19.58
2022-10-19T08:44:49.686Z,18.16
2022-10-19T08:47:43.729Z,18.05
2022-10-19T08:50:26.050Z,17.19
2022-10-19T08:53:06.461Z,17.27
2022-10-19T08:55:45.390Z,16.83
2022-10-19T08:58:47.628Z,16.77
2022-10-19T09:02:14.205Z,16.32
2022-10-19T09:04:49.262Z,17.49
2022-10-19T09:07:34.937Z,19.72
2022-10-19T09:10:14.817Z,20.40
2022-10-19T09:13:01.477Z,21.42
2022-10-19T09:15:51.606Z,21.75
2022-10-19T09:18:28.332Z,23.19
2022-10-19T09:21:15.980Z,23.06
2022-10-19T09:24:32.132Z,22.32
2022-10-19T09:27:03.512Z,23.12
2022-10-19T09:29:50.084Z,22.91
2022-10-19T09:32:29.667Z,24.26
2022-10-19T09:35:22.557Z,24.03
2022-10-19T09:37:51.343Z,24.55
2022-10-19T09:40:22.715Z,23.99
2022-10-19T09:42:57.293Z,24.22
2022-10-19T09:45:33.867Z,24.66
2022-10-19T09:48:12.825Z,24.58
2022-10-19T09:50:44.603Z,25.18
2022-10-19T09:53:20.956Z,24.81
2022-10-19T09:56:27.157Z,26.91
2022-10-19T09:58:59.046Z,27.20
2022-10-19T10:01:43.851Z,27.37
2022-10-19T10:04:18.613Z,27.54
2022-10-19T10:06:51.694Z,26.95
2022-10-19T10:09:26.316Z,27.73
2022-10-19T10:11:57.448Z,28.68
2022-10-19T10:14:40.146Z,29.66
2022-10-19T10:17:21.893Z,27.51
2022-10-19T10:20:20.951Z,24.98
2022-10-19T10:23:04.451Z,27.71
2022-10-19T10:25:35.220Z,28.82
2022-10-19T10:28:15.450Z,24.82
2022-10-19T10:30:44.898Z,23.14
2022-10-19T10:33:43.802Z,21.36
2022-10-19T10:36:12.775Z,22.20
2022-10-19T10:41:54.115Z,24.67
2022-10-19T10:44:30.971Z,26.23
2022-10-19T10:47:18.099Z,26.94
2022-10-19T10:50:02.900Z,27.24
2022-10-19T10:52:31.675Z,26.27
2022-10-19T10:55:04.679Z,27.16
2022-10-19T10:57:47.247Z,25.79
2022-10-19T11:00:22.642Z,25.22
2022-10-19T11:03:23.648Z,23.51
2022-10-19T11:05:58.443Z,23.30
2022-10-19T11:08:28.261Z,23.48
2022-10-19T11:11:23.953Z,23.15
2022-10-19T11:14:02.085Z,24.11
2022-10-19T11:16:42.932Z,23.65
2022-10-19T11:19:19.304Z,24.17
2022-10-19T11:22:15.664Z,23.39
2022-10-19T11:26:09.822Z,21.36
2022-10-19T11:33:46.229Z,19.51
2022-10-19T11:37:03.193Z,19.87
2022-10-19T11:39:52.945Z,20.43
2022-10-19T11:43:04.876Z,21.23
2022-10-19T11:46:16.711Z,22.15
2022-10-19T11:52:20.496Z,22.14
2022-10-19T11:54:56.377Z,22.64
2022-10-19T12:01:03.327Z,22.76
2022-10-19T12:03:56.191Z,23.10
2022-10-19T12:07:28.185Z,22.72
2022-10-19T12:10:34.349Z,22.78
2022-10-19T12:13:10.932Z,23.55
2022-10-19T12:15:53.831Z,23.25
2022-10-19T12:18:40.128Z,22.94
2022-10-19T12:21:39.443Z,22.99
2022-10-19T12:24:16.293Z,22.61
2022-10-19T12:26:45.463Z,23.11
2022-10-19T12:29:26.948Z,22.94
2022-10-19T12:31:56.300Z,23.55
2022-10-19T12:34:47.847Z,22.51
2022-10-19T12:37:49.978Z,22.36
2022-10-19T12:40:47.971Z,22.57
2022-10-19T12:44:05.984Z,23.24
2022-10-19T12:46:53.845Z,22.40
2022-10-19T12:49:51.160Z,22.52
2022-10-19T12:52:52.374Z,22.33
2022-10-19T12:55:26.760Z,22.18
2022-10-19T12:58:06.643Z,21.65
2022-10-19T13:00:37.593Z,21.61
2022-10-19T13:03:15.829Z,22.36
2022-10-19T13:05:56.352Z,21.68
2022-10-19T13:08:54.387Z,22.20
2022-10-19T13:11:22.477Z,21.05
2022-10-19T13:14:00.189Z,20.42
2022-10-19T13:16:30.277Z,19.50
2022-10-19T13:19:00.434Z,18.76
2022-10-19T13:21:51.082Z,17.80
2022-10-19T13:24:24.168Z,17.78
2022-10-19T13:27:03.243Z,17.86
2022-10-19T13:29:39.703Z,17.46
2022-10-19T13:32:45.318Z,16.75
2022-10-19T13:35:35.557Z,16.82
2022-10-19T13:38:18.366Z,16.78
2022-10-19T13:40:48.353Z,17.06
2022-10-19T13:43:30.938Z,16.89
2022-10-19T13:46:23.127Z,16.61
2022-10-19T13:49:18.446Z,16.59
2022-10-19T13:51:54.312Z,16.33
2022-10-19T13:55:18.653Z,16.17
2022-10-19T13:58:00.565Z,15.80
2022-10-19T14:00:55.041Z,16.13
2022-10-19T14:04:36.633Z,15.70
2022-10-19T14:07:30.313Z,15.89
2022-10-19T14:10:08.412Z,16.15
2022-10-19T14:12:39.649Z,16.47
2022-10-19T14:15:35.101Z,16.03
2022-10-19T14:18:05.118Z,16.42
2022-10-19T14:20:39.125Z,16.45
2022-10-19T14:23:28.780Z,16.96
2022-10-19T14:26:22.062Z,16.43
2022-10-19T14:28:55.204Z,16.49
2022-10-19T14:31:35.524Z,16.81
2022-10-19T14:34:07.510Z,16.50
2022-10-19T14:36:39.727Z,16.26
2022-10-19T14:39:24.159Z,16.88
2022-10-19T14:41:55.852Z,16.60
2022-10-19T14:44:44.709Z,16.70
2022-10-19T14:47:30.435Z,16.24
2022-10-19T14:49:57.972Z,15.59
2022-10-19T14:52:38.425Z,14.80
2022-10-19T14:55:16.854Z,14.57
2022-10-19T14:57:49.128Z,14.31
2022-10-19T15:00:23.729Z,14.11
2022-10-19T15:03:03.985Z,14.12
2022-10-19T15:05:37.880Z,13.39
2022-10-19T15:08:16.680Z,13.39
2022-10-19T15:10:47.194Z,13.22
2022-10-19T15:13:27.105Z,12.98
2022-10-19T15:15:55.931Z,12.98
2022-10-19T15:18:48.244Z,12.67
2022-10-19T15:21:20.992Z,12.94
2022-10-19T15:23:53.093Z,12.60
2022-10-19T15:26:28.984Z,12.58
2022-10-19T15:29:19.469Z,12.53
2022-10-19T15:31:46.581Z,12.42
2022-10-19T15:34:32.990Z,12.14
2022-10-19T15:37:01.623Z,12.25
2022-10-19T15:39:39.753Z,12.18
2022-10-19T15:42:36.712Z,11.94
2022-10-19T15:45:42.030Z,11.90
2022-10-19T15:48:23.038Z,11.89
2022-10-19T15:50:55.152Z,11.77
2022-10-19T15:53:23.028Z,11.83
2022-10-19T15:55:52.518Z,11.52
2022-10-19T15:58:21.191Z,11.33
2022-10-19T16:00:48.393Z,11.40
2022-10-19T16:03:16.469Z,11.24
2022-10-19T16:05:43.705Z,11.21
2022-10-19T16:08:12.489Z,11.14
2022-10-19T16:10:39.732Z,11.06
2022-10-19T16:13:06.899Z,11.02
2022-10-19T16:15:33.998Z,10.92
2022-10-19T16:18:01.354Z,10.84
2022-10-19T16:20:32.214Z,10.88
2022-10-19T16:23:01.537Z,10.79
2022-10-19T16:25:28.918Z,10.72
2022-10-19T16:27:56.024Z,10.68
2022-10-19T16:30:23.170Z,10.52
2022-10-19T16:32:50.938Z,10.52
2022-10-19T16:35:18.057Z,10.52
2022-10-19T16:37:45.099Z,10.36
2022-10-19T16:40:12.405Z,10.46
2022-10-19T16:42:39.494Z,10.43
2022-10-19T16:45:07.280Z,10.12
2022-10-19T16:47:34.353Z,10.12
2022-10-19T16:50:03.609Z,10.27
2022-10-19T16:52:33.261Z,10.19
2022-10-19T16:55:01.023Z,9.93
2022-10-19T16:57:28.290Z,10.07
2022-10-19T16:59:59.745Z,10.05
2022-10-19T17:02:26.927Z,10.04
2022-10-19T17:04:56.535Z,9.99
2022-10-19T17:07:24.371Z,10.08
2022-10-19T17:09:54.688Z,9.85
2022-10-19T17:12:22.183Z,9.90
2022-10-19T17:14:49.349Z,9.87
2022-10-19T17:17:17.293Z,9.68
2022-10-19T17:19:47.746Z,9.86
2022-10-19T17:22:15.064Z,9.59
2022-10-19T17:24:46.386Z,9.77
2022-10-19T17:27:13.454Z,9.65
2022-10-19T17:29:43.056Z,9.46
2022-10-19T17:32:10.234Z,9.41
2022-10-19T17:34:37.360Z,9.34
2022-10-19T17:37:04.641Z,9.35
2022-10-19T17:39:32.128Z,9.46
2022-10-19T17:42:03.408Z,9.54
2022-10-19T17:44:31.592Z,9.54
2022-10-19T17:47:03.522Z,9.44
2022-10-19T17:49:30.565Z,9.55
2022-10-19T17:51:58.087Z,9.40
2022-10-19T17:54:25.302Z,9.47
2022-10-19T17:56:53.208Z,9.49
2022-10-19T17:59:30.332Z,9.54
2022-10-19T18:02:03.334Z,9.34
2022-10-19T18:04:30.422Z,9.37
2022-10-19T18:06:57.523Z,9.28
2022-10-19T18:09:24.696Z,9.20
2022-10-19T18:11:51.762Z,9.27
2022-10-19T18:14:18.828Z,9.19
2022-10-19T18:16:47.381Z,9.15
2022-10-19T18:19:16.658Z,9.01
2022-10-19T18:21:46.466Z,8.93
2022-10-19T18:24:21.713Z,8.90
2022-10-19T18:26:50.696Z,8.82
2022-10-19T18:29:27.637Z,8.73
2022-10-19T18:31:59.328Z,8.81
2022-10-19T18:34:27.950Z,8.78
2022-10-19T18:36:55.348Z,8.78
2022-10-19T18:39:23.216Z,8.79
2022-10-19T18:41:56.847Z,8.61
2022-10-19T18:44:27.096Z,8.51
2022-10-19T18:46:57.250Z,8.45
2022-10-19T18:49:25.241Z,8.47
2022-10-19T18:51:55.379Z,8.46
2022-10-19T18:54:27.954Z,8.44
2022-10-19T18:56:55.702Z,8.37
2022-10-19T18:59:25.270Z,8.19
2022-10-19T19:01:52.538Z,7.68
2022-10-19T19:04:19.960Z,7.76
2022-10-19T19:06:47.152Z,7.87
2022-10-19T19:09:14.320Z,7.66
2022-10-19T19:11:41.664Z,7.81
2022-10-19T19:14:13.654Z,7.34
2022-10-19T19:16:42.493Z,7.61
2022-10-19T19:19:12.006Z,7.53
2022-10-19T19:21:41.883Z,7.63
2022-10-19T19:24:10.603Z,7.64
2022-10-19T19:26:42.098Z,7.51
2022-10-19T19:29:09.610Z,7.46
2022-10-19T19:31:41.192Z,7.42
2022-10-19T19:34:09.519Z,7.44
2022-10-19T19:36:38.184Z,7.40
2022-10-19T19:39:06.160Z,7.47
2022-10-19T19:41:34.291Z,7.51
2022-10-19T19:44:09.592Z,7.45
2022-10-19T19:46:37.918Z,7.34
2022-10-19T19:49:05.585Z,7.06
2022-10-19T19:51:33.528Z,7.22
2022-10-19T19:54:00.777Z,7.27
2022-10-19T19:56:29.123Z,7.07
2022-10-19T19:58:59.403Z,6.59
2022-10-19T20:01:29.480Z,6.74
2022-10-19T20:03:59.316Z,6.23
2022-10-19T20:06:26.734Z,6.71
2022-10-19T20:08:56.469Z,6.26
2022-10-19T20:11:28.746Z,6.48
2022-10-19T20:13:55.935Z,6.27
2022-10-19T20:16:29.247Z,6.29
2022-10-19T20:19:05.384Z,6.35
2022-10-19T20:21:33.780Z,6.47
2022-10-19T20:24:01.566Z,6.05
2022-10-19T20:26:33.548Z,6.37
2022-10-19T20:29:08.727Z,6.44
2022-10-19T20:31:39.672Z,6.53
2022-10-19T20:34:14.067Z,6.55
2022-10-19T20:36:44.539Z,6.58
2022-10-19T20:39:14.721Z,6.29
2022-10-19T20:41:42.013Z,6.42
2022-10-19T20:44:09.123Z,6.28
2022-10-19T20:46:37.216Z,5.90
2022-10-19T20:49:08.636Z,6.07
2022-10-19T20:51:36.976Z,6.01
2022-10-19T20:54:12.280Z,5.99
2022-10-19T20:56:41.355Z,5.75
2022-10-19T20:59:16.217Z,5.95
2022-10-19T21:01:45.373Z,5.96
2022-10-19T21:04:14.367Z,5.77
2022-10-19T21:06:48.165Z,5.45
2022-10-19T21:09:19.304Z,5.47
2022-10-19T21:11:48.369Z,5.67
2022-10-19T21:14:25.285Z,5.66
2022-10-19T21:16:59.791Z,5.53
2022-10-19T21:19:29.541Z,5.70
2022-10-19T21:22:02.290Z,5.63
2022-10-19T21:24:36.096Z,5.59
2022-10-19T21:27:07.606Z,5.04
2022-10-19T21:29:36.052Z,5.39
2022-10-19T21:32:04.158Z,5.47
2022-10-19T21:34:38.233Z,5.57
2022-10-19T21:37:14.682Z,5.37
2022-10-19T21:39:52.763Z,5.29
2022-10-19T21:42:30.376Z,5.18
2022-10-19T21:45:06.277Z,5.19
2022-10-19T21:47:39.151Z,5.05
2022-10-19T21:50:08.763Z,5.09
2022-10-19T21:52:36.310Z,5.02
2022-10-19T21:55:03.637Z,5.14
2022-10-19T21:57:30.804Z,5.27
2022-10-19T21:59:57.888Z,5.12
2022-10-19T22:02:24.916Z,5.12
2022-10-19T22:04:52.093Z,5.01
2022-10-19T22:07:19.201Z,4.99
2022-10-19T22:09:46.303Z,5.08
2022-10-19T22:14:45.380Z,4.98
2022-10-19T22:17:16.125Z,5.02
2022-10-19T22:19:43.380Z,4.90
2022-10-19T22:22:10.420Z,4.71
2022-10-19T22:24:37.685Z,4.90
2022-10-19T22:27:04.787Z,4.81
2022-10-19T22:29:31.877Z,4.94
2022-10-19T22:31:59.189Z,4.98
2022-10-19T22:34:26.283Z,5.10
2022-10-19T22:36:53.472Z,5.13
2022-10-19T22:39:20.830Z,4.78
2022-10-19T22:43:06.139Z,4.90
2022-10-19T22:45:33.986Z,4.88
2022-10-19T22:48:01.035Z,5.01
2022-10-19T22:50:28.122Z,4.99
2022-10-19T22:52:55.354Z,5.02
2022-10-19T22:55:22.499Z,4.91
2022-10-19T22:57:52.158Z,4.80
2022-10-19T23:00:21.706Z,4.93
2022-10-19T23:02:48.906Z,4.96
2022-10-19T23:05:19.080Z,4.89
2022-10-19T23:07:46.171Z,4.86
2022-10-19T23:10:13.398Z,4.78
2022-10-19T23:12:43.088Z,4.73
2022-10-19T23:15:10.856Z,4.67
2022-10-19T23:17:38.112Z,4.71
2022-10-19T23:20:11.226Z,4.66
2022-10-19T23:22:38.678Z,4.59
2022-10-19T23:25:06.872Z,4.23
2022-10-19T23:27:35.312Z,4.11
2022-10-19T23:30:05.527Z,4.36
2022-10-19T23:32:32.635Z,4.38
2022-10-19T23:35:04.091Z,4.25
2022-10-19T23:37:31.295Z,4.36
2022-10-19T23:39:58.353Z,4.09
2022-10-19T23:42:28.084Z,3.93
2022-10-19T23:44:55.254Z,4.18
2022-10-19T23:47:22.485Z,4.23
2022-10-19T23:49:51.618Z,4.25
2022-10-19T23:52:18.736Z,4.17
2022-10-19T23:54:48.258Z,4.28
2022-10-19T23:57:15.387Z,4.29
2022-10-19T23:59:42.460Z,4.26
